Bv379 — WAI9272 — position and weather

sailwx.info

Track history (hours):
 
Tides and Currents Weather Stations Pressure Air Temp Water Temp Dewpoint Dewpoint Depression Visibility Wind Speed Wind Dir Waves Ship Positions

Bv379

Owner: BIG VALLEY TOWING, VICKSBURG, MS. More information available from US FCC via Universal Licensing System and Coast Guard Vessel Documentation Center.

Last reported at 2018-Jan-23 22:44 UTC. Time now 2018-Jan-23 23:51 UTC.
Position N 32°20' W 090°54'.

Length 12 m.

Type: Passenger vessel. MMSI: 367009830.

Date/timePositionNaut miles runAvg speedWind from/ knotsBaromVisibWave heightAir tempDewpointWater temp
2018-Jan-23 22:44N 32°20' W 090°54'1 3.5
2018-Jan-23 22:30N 32°19' W 090°54'1 0.2
2018-Jan-23 18:18N 32°20' W 090°54'311.5
2018-Jan-23 18:01N 32°17' W 090°56'1 2.7
2018-Jan-23 17:30N 32°18' W 090°55'2 3.3
2018-Jan-23 16:53N 32°20' W 090°54'0 1.1
2018-Jan-23 16:30N 32°20' W 090°54'0 0.1
2018-Jan-23 08:38N 32°20' W 090°54'0 0.1
2018-Jan-23 08:30N 32°20' W 090°54'3 5.1
2018-Jan-23 08:00N 32°22' W 090°53'1 1.1
2018-Jan-23 07:30N 32°22' W 090°53'4 8.7
2018-Jan-23 07:00N 32°19' W 090°55'3 5.0
2018-Jan-23 06:25N 32°21' W 090°57'3 6.8
2018-Jan-23 06:00N 32°20' W 090°54'5 9.2
2018-Jan-23 05:30N 32°21' W 090°59'5 2.8
2018-Jan-23 03:52N 32°20' W 090°54'2 4.2
2018-Jan-23 03:30N 32°18' W 090°55'0 0.1
2018-Jan-23 03:00N 32°19' W 090°55'0 0.1
2018-Jan-23 02:30N 32°18' W 090°55'2 0.8
2018-Jan-23 00:37N 32°20' W 090°54'1 9.5
2018-Jan-23 00:30N 32°19' W 090°54'1 0.5
2018-Jan-22 22:37N 32°20' W 090°54'1 5.7
2018-Jan-22 22:30N 32°19' W 090°54'2 3.6
2018-Jan-22 22:00N 32°21' W 090°55'1 2.2
2018-Jan-22 21:30N 32°20' W 090°54'1 2.7
2018-Jan-22 21:00N 32°19' W 090°54'1 1.8
2018-Jan-22 20:27N 32°20' W 090°54'0 0.0
2018-Jan-22 20:00N 32°20' W 090°54'0 0.0
2018-Jan-22 19:30N 32°20' W 090°54'0 0.0
2018-Jan-22 19:00N 32°20' W 090°54'0 0.0
2018-Jan-22 18:29N 32°20' W 090°54'0 0.0
2018-Jan-22 17:58N 32°20' W 090°54'0 0.0
2018-Jan-22 17:27N 32°20' W 090°54'2 5.3
2018-Jan-22 17:00N 32°18' W 090°56'2 0.5
2018-Jan-22 12:34N 32°20' W 090°54'0 3.0
2018-Jan-22 12:30N 32°19' W 090°54'1 2.8
2018-Jan-22 12:00N 32°18' W 090°55'2 0.2
2018-Jan-22 04:33N 32°20' W 090°54'0 5.4
2018-Jan-22 04:31N 32°20' W 090°54'3 6.3
2018-Jan-22 04:00N 32°21' W 090°57'3 1.6
2018-Jan-22 02:00N 32°20' W 090°54'1 2.3
2018-Jan-22 01:30N 32°21' W 090°55'1 0.8
2018-Jan-22 00:05N 32°20' W 090°54'110.6
2018-Jan-22 00:01N 32°20' W 090°54'1 1.2
2018-Jan-21 23:30N 32°20' W 090°54'0 0.2
2018-Jan-21 22:59N 32°20' W 090°54'0 0.0
2018-Jan-21 22:30N 32°20' W 090°54'0 0.0
2018-Jan-21 22:00N 32°20' W 090°54'0 0.0
2018-Jan-21 21:30N 32°20' W 090°54'0 0.0
2018-Jan-21 21:00N 32°20' W 090°54'0 0.0
2018-Jan-21 20:30N 32°20' W 090°54'0 0.0
2018-Jan-21 20:00N 32°20' W 090°54'0 0.0
2018-Jan-21 19:30N 32°20' W 090°54'2 3.6
2018-Jan-21 19:00N 32°18' W 090°55'1 2.8
2018-Jan-21 18:30N 32°19' W 090°54'0 0.8
2018-Jan-21 18:00N 32°20' W 090°54'0 0.0
2018-Jan-21 17:30N 32°20' W 090°54'1 2.0
2018-Jan-21 17:00N 32°20' W 090°54'2 4.0
2018-Jan-21 16:31N 32°18' W 090°55'1 2.4
2018-Jan-21 15:57N 32°20' W 090°54'0 0.0
2018-Jan-21 15:27N 32°20' W 090°54'0 0.0
2018-Jan-21 15:01N 32°20' W 090°54'0 0.0
2018-Jan-21 14:30N 32°20' W 090°54'0 0.0
2018-Jan-21 14:00N 32°20' W 090°54'1 1.8
2018-Jan-21 13:30N 32°19' W 090°54'1 0.5
2018-Jan-21 11:47N 32°20' W 090°54'0 0.0
2018-Jan-21 11:30N 32°20' W 090°54'1 1.9
2018-Jan-21 11:01N 32°19' W 090°54'1 0.1
2018-Jan-21 04:17N 32°20' W 090°54'0 0.1
2018-Jan-21 03:59N 32°20' W 090°54'2 5.0
2018-Jan-21 03:30N 32°21' W 090°56'2 4.6
2018-Jan-21 03:00N 32°20' W 090°54'3 5.4
2018-Jan-21 02:23N 32°21' W 090°58'3 9.2
2018-Jan-21 02:00N 32°19' W 090°54'1 0.5
2018-Jan-21 00:36N 32°20' W 090°54'110.5
2018-Jan-21 00:30N 32°19' W 090°55'1 2.1
2018-Jan-21 00:00N 32°20' W 090°54'0 0.0
2018-Jan-20 23:30N 32°20' W 090°54'0 0.8
2018-Jan-20 23:00N 32°19' W 090°54'0 0.8
2018-Jan-20 22:30N 32°20' W 090°54'1 2.6
2018-Jan-20 22:00N 32°19' W 090°55'1 1.4
2018-Jan-20 21:30N 32°18' W 090°55'2 4.0
2018-Jan-20 21:00N 32°20' W 090°54'0 0.0
2018-Jan-20 04:13N 32°20' W 090°54'2 8.4
2018-Jan-20 04:00N 32°21' W 090°55'1 2.7
2018-Jan-20 03:30N 32°20' W 090°54'1 0.5
2018-Jan-20 02:13N 32°20' W 090°54'2 8.4
2018-Jan-20 02:00N 32°18' W 090°55'2 3.5
2018-Jan-20 01:30N 32°20' W 090°54'5 9.9
2018-Jan-20 01:01N 32°21' W 090°59'5 9.9
2018-Jan-20 00:30N 32°20' W 090°54'0 0.0
2018-Jan-19 22:28N 32°20' W 090°54'2 5.0
2018-Jan-19 22:00N 32°18' W 090°56'2 2.1
2018-Jan-19 20:53N 32°20' W 090°54'0 0.0
2018-Jan-19 20:30N 32°20' W 090°54'0 0.0
2018-Jan-19 16:01N 32°20' W 090°54'0 0.4
2018-Jan-19 16:00N 32°20' W 090°54'1 2.4
2018-Jan-19 15:30N 32°19' W 090°55'1 2.3
2018-Jan-19 15:00N 32°20' W 090°54'0 0.0
2018-Jan-19 14:30N 32°20' W 090°54'0 0.0
2018-Jan-19 13:57N 32°20' W 090°54'0 0.5
2018-Jan-19 13:30N 32°19' W 090°54'0 0.3
2018-Jan-19 12:45N 32°20' W 090°54'1 4.9
2018-Jan-19 12:31N 32°21' W 090°55'1 1.2
2018-Jan-19 11:34N 32°20' W 090°54'1 9.1
2018-Jan-19 11:30N 32°20' W 090°54'1 1.1
2018-Jan-19 11:00N 32°20' W 090°54'0 0.0
2018-Jan-19 03:19N 32°19' W 090°54'1 3.2
2018-Jan-19 03:00N 32°19' W 090°55'1 0.6
2018-Jan-19 00:56N 32°20' W 090°54'2 5.0
2018-Jan-19 00:30N 32°18' W 090°56'  
Track history (hours):
 
Tides and Currents Weather Stations Pressure Air Temp Water Temp Dewpoint Dewpoint Depression Visibility Wind Speed Wind Dir Waves Ship Positions

Bv379

Owner: BIG VALLEY TOWING, VICKSBURG, MS. More information available from US FCC via Universal Licensing System and Coast Guard Vessel Documentation Center.

Last reported at 2018-Jan-23 22:44 UTC. Time now 2018-Jan-23 23:51 UTC.
Position N 32°20' W 090°54'.

Length 12 m.

Type: Passenger vessel. MMSI: 367009830.

Date/timePositionNaut miles runAvg speedWind from/ knotsBaromVisibWave heightAir tempDewpointWater temp
2018-Jan-23 22:44N 32°20' W 090°54'1 3.5
2018-Jan-23 22:30N 32°19' W 090°54'1 0.2
2018-Jan-23 18:18N 32°20' W 090°54'311.5
2018-Jan-23 18:01N 32°17' W 090°56'1 2.7
2018-Jan-23 17:30N 32°18' W 090°55'2 3.3
2018-Jan-23 16:53N 32°20' W 090°54'0 1.1
2018-Jan-23 16:30N 32°20' W 090°54'0 0.1
2018-Jan-23 08:38N 32°20' W 090°54'0 0.1
2018-Jan-23 08:30N 32°20' W 090°54'3 5.1
2018-Jan-23 08:00N 32°22' W 090°53'1 1.1
2018-Jan-23 07:30N 32°22' W 090°53'4 8.7
2018-Jan-23 07:00N 32°19' W 090°55'3 5.0
2018-Jan-23 06:25N 32°21' W 090°57'3 6.8
2018-Jan-23 06:00N 32°20' W 090°54'5 9.2
2018-Jan-23 05:30N 32°21' W 090°59'5 2.8
2018-Jan-23 03:52N 32°20' W 090°54'2 4.2
2018-Jan-23 03:30N 32°18' W 090°55'0 0.1
2018-Jan-23 03:00N 32°19' W 090°55'0 0.1
2018-Jan-23 02:30N 32°18' W 090°55'2 0.8
2018-Jan-23 00:37N 32°20' W 090°54'1 9.5
2018-Jan-23 00:30N 32°19' W 090°54'1 0.5
2018-Jan-22 22:37N 32°20' W 090°54'1 5.7
2018-Jan-22 22:30N 32°19' W 090°54'2 3.6
2018-Jan-22 22:00N 32°21' W 090°55'1 2.2
2018-Jan-22 21:30N 32°20' W 090°54'1 2.7
2018-Jan-22 21:00N 32°19' W 090°54'1 1.8
2018-Jan-22 20:27N 32°20' W 090°54'0 0.0
2018-Jan-22 20:00N 32°20' W 090°54'0 0.0
2018-Jan-22 19:30N 32°20' W 090°54'0 0.0
2018-Jan-22 19:00N 32°20' W 090°54'0 0.0
2018-Jan-22 18:29N 32°20' W 090°54'0 0.0
2018-Jan-22 17:58N 32°20' W 090°54'0 0.0
2018-Jan-22 17:27N 32°20' W 090°54'2 5.3
2018-Jan-22 17:00N 32°18' W 090°56'2 0.5
2018-Jan-22 12:34N 32°20' W 090°54'0 3.0
2018-Jan-22 12:30N 32°19' W 090°54'1 2.8
2018-Jan-22 12:00N 32°18' W 090°55'2 0.2
2018-Jan-22 04:33N 32°20' W 090°54'0 5.4
2018-Jan-22 04:31N 32°20' W 090°54'3 6.3
2018-Jan-22 04:00N 32°21' W 090°57'3 1.6
2018-Jan-22 02:00N 32°20' W 090°54'1 2.3
2018-Jan-22 01:30N 32°21' W 090°55'1 0.8
2018-Jan-22 00:05N 32°20' W 090°54'110.6
2018-Jan-22 00:01N 32°20' W 090°54'1 1.2
2018-Jan-21 23:30N 32°20' W 090°54'0 0.2
2018-Jan-21 22:59N 32°20' W 090°54'0 0.0
2018-Jan-21 22:30N 32°20' W 090°54'0 0.0
2018-Jan-21 22:00N 32°20' W 090°54'0 0.0
2018-Jan-21 21:30N 32°20' W 090°54'0 0.0
2018-Jan-21 21:00N 32°20' W 090°54'0 0.0
2018-Jan-21 20:30N 32°20' W 090°54'0 0.0
2018-Jan-21 20:00N 32°20' W 090°54'0 0.0
2018-Jan-21 19:30N 32°20' W 090°54'2 3.6
2018-Jan-21 19:00N 32°18' W 090°55'1 2.8
2018-Jan-21 18:30N 32°19' W 090°54'0 0.8
2018-Jan-21 18:00N 32°20' W 090°54'0 0.0
2018-Jan-21 17:30N 32°20' W 090°54'1 2.0
2018-Jan-21 17:00N 32°20' W 090°54'2 4.0
2018-Jan-21 16:31N 32°18' W 090°55'1 2.4
2018-Jan-21 15:57N 32°20' W 090°54'0 0.0
2018-Jan-21 15:27N 32°20' W 090°54'0 0.0
2018-Jan-21 15:01N 32°20' W 090°54'0 0.0
2018-Jan-21 14:30N 32°20' W 090°54'0 0.0
2018-Jan-21 14:00N 32°20' W 090°54'1 1.8
2018-Jan-21 13:30N 32°19' W 090°54'1 0.5
2018-Jan-21 11:47N 32°20' W 090°54'0 0.0
2018-Jan-21 11:30N 32°20' W 090°54'1 1.9
2018-Jan-21 11:01N 32°19' W 090°54'1 0.1
2018-Jan-21 04:17N 32°20' W 090°54'0 0.1
2018-Jan-21 03:59N 32°20' W 090°54'2 5.0
2018-Jan-21 03:30N 32°21' W 090°56'2 4.6
2018-Jan-21 03:00N 32°20' W 090°54'3 5.4
2018-Jan-21 02:23N 32°21' W 090°58'3 9.2
2018-Jan-21 02:00N 32°19' W 090°54'1 0.5
2018-Jan-21 00:36N 32°20' W 090°54'110.5
2018-Jan-21 00:30N 32°19' W 090°55'1 2.1
2018-Jan-21 00:00N 32°20' W 090°54'0 0.0
2018-Jan-20 23:30N 32°20' W 090°54'0 0.8
2018-Jan-20 23:00N 32°19' W 090°54'0 0.8
2018-Jan-20 22:30N 32°20' W 090°54'1 2.6
2018-Jan-20 22:00N 32°19' W 090°55'1 1.4
2018-Jan-20 21:30N 32°18' W 090°55'2 4.0
2018-Jan-20 21:00N 32°20' W 090°54'0 0.0
2018-Jan-20 04:13N 32°20' W 090°54'2 8.4
2018-Jan-20 04:00N 32°21' W 090°55'1 2.7
2018-Jan-20 03:30N 32°20' W 090°54'1 0.5
2018-Jan-20 02:13N 32°20' W 090°54'2 8.4
2018-Jan-20 02:00N 32°18' W 090°55'2 3.5
2018-Jan-20 01:30N 32°20' W 090°54'5 9.9
2018-Jan-20 01:01N 32°21' W 090°59'5 9.9
2018-Jan-20 00:30N 32°20' W 090°54'0 0.0
2018-Jan-19 22:28N 32°20' W 090°54'2 5.0
2018-Jan-19 22:00N 32°18' W 090°56'2 2.1
2018-Jan-19 20:53N 32°20' W 090°54'0 0.0
2018-Jan-19 20:30N 32°20' W 090°54'0 0.0
2018-Jan-19 16:01N 32°20' W 090°54'0 0.4
2018-Jan-19 16:00N 32°20' W 090°54'1 2.4
2018-Jan-19 15:30N 32°19' W 090°55'1 2.3
2018-Jan-19 15:00N 32°20' W 090°54'0 0.0
2018-Jan-19 14:30N 32°20' W 090°54'0 0.0
2018-Jan-19 13:57N 32°20' W 090°54'0 0.5
2018-Jan-19 13:30N 32°19' W 090°54'0 0.3
2018-Jan-19 12:45N 32°20' W 090°54'1 4.9
2018-Jan-19 12:31N 32°21' W 090°55'1 1.2
2018-Jan-19 11:34N 32°20' W 090°54'1 9.1
2018-Jan-19 11:30N 32°20' W 090°54'1 1.1
2018-Jan-19 11:00N 32°20' W 090°54'0 0.0
2018-Jan-19 03:19N 32°19' W 090°54'1 3.2
2018-Jan-19 03:00N 32°19' W 090°55'1 0.6
2018-Jan-19 00:56N 32°20' W 090°54'2 5.0
2018-Jan-19 00:30N 32°18' W 090°56'  

Dump ship's entire track history